createdAt,value
2017-12-10T00:02:34.895Z,1.00
2017-12-10T00:17:34.110Z,1.87
2017-12-10T00:32:33.983Z,1.70
2017-12-10T00:47:34.919Z,2.00
2017-12-10T01:02:35.128Z,2.17
2017-12-10T01:17:34.529Z,2.30
2017-12-10T01:32:34.411Z,2.17
2017-12-10T01:47:36.408Z,2.00
2017-12-10T02:02:34.290Z,2.30
2017-12-10T02:17:34.252Z,2.70
2017-12-10T02:32:36.628Z,3.10
2017-12-10T02:47:36.571Z,3.30
2017-12-10T03:02:34.507Z,2.77
2017-12-10T03:17:37.465Z,3.23
2017-12-10T03:32:36.865Z,3.80
2017-12-10T03:47:34.784Z,2.80
2017-12-10T04:02:34.701Z,3.30
2017-12-10T04:17:35.058Z,3.72
2017-12-10T04:32:35.212Z,3.75
2017-12-10T04:47:36.964Z,2.80
2017-12-10T05:02:34.920Z,2.37
2017-12-10T05:17:37.279Z,2.83
2017-12-10T05:32:34.438Z,2.73
2017-12-10T05:47:38.143Z,2.83
2017-12-10T06:02:35.117Z,2.80
2017-12-10T06:17:34.549Z,2.62
2017-12-10T06:32:34.443Z,5.40
2017-12-10T06:47:34.415Z,3.30
2017-12-10T07:02:34.337Z,4.93
2017-12-10T07:17:34.695Z,6.00
2017-12-10T07:32:34.841Z,6.10
2017-12-10T07:47:34.624Z,6.50
2017-12-10T08:02:34.516Z,8.00
2017-12-10T08:17:34.867Z,6.73
2017-12-10T08:32:34.928Z,6.57
2017-12-10T08:47:34.840Z,8.03
2017-12-10T09:02:34.745Z,5.77
2017-12-10T09:17:35.151Z,6.50
2017-12-10T09:32:35.378Z,4.87
2017-12-10T09:47:36.009Z,5.73
2017-12-10T10:02:34.967Z,6.20
2017-12-10T10:17:34.381Z,4.40
2017-12-10T10:32:34.368Z,4.47
2017-12-10T10:47:34.306Z,4.50
2017-12-10T11:02:34.196Z,6.40
2017-12-10T11:17:33.846Z,5.07
2017-12-10T11:32:35.889Z,5.27
2017-12-10T11:47:35.448Z,5.17
2017-12-10T12:02:34.522Z,4.80
2017-12-10T12:17:36.779Z,4.43
2017-12-10T12:32:34.723Z,4.47
2017-12-10T12:47:35.240Z,6.97
2017-12-10T13:02:34.681Z,5.43
2017-12-10T13:17:34.999Z,7.43
2017-12-10T13:32:35.545Z,7.70
2017-12-10T13:47:34.966Z,8.00
2017-12-10T14:02:34.368Z,10.20
2017-12-10T14:17:34.311Z,13.43
2017-12-10T14:32:34.220Z,17.30
2017-12-10T14:47:34.168Z,17.20
2017-12-10T15:02:35.189Z,12.98
2017-12-10T15:17:34.347Z,15.38
2017-12-10T15:32:34.415Z,18.62
2017-12-10T15:47:34.458Z,18.65
2017-12-10T16:02:34.355Z,19.50
2017-12-10T16:17:34.687Z,27.85
2017-12-10T16:32:34.670Z,23.92
2017-12-10T16:47:34.628Z,23.25
2017-12-10T17:02:34.640Z,19.33
2017-12-10T17:17:37.972Z,23.00
2017-12-10T17:32:36.929Z,23.40
2017-12-10T17:47:34.803Z,23.30
2017-12-10T18:02:36.787Z,21.40
2017-12-10T18:17:34.247Z,25.20
2017-12-10T18:32:36.633Z,46.95
2017-12-10T18:47:35.148Z,63.38
2017-12-10T19:02:35.604Z,51.20
2017-12-10T19:17:36.565Z,58.87
2017-12-10T19:32:36.388Z,60.78
2017-12-10T19:47:34.376Z,57.67
2017-12-10T20:02:34.291Z,59.63
2017-12-10T20:17:34.632Z,58.70
2017-12-10T20:32:34.577Z,57.35
2017-12-10T20:47:37.543Z,46.05
2017-12-10T21:02:34.488Z,45.78
2017-12-10T21:17:34.864Z,54.78
2017-12-10T21:32:34.766Z,56.25
2017-12-10T21:47:34.755Z,60.83
2017-12-10T22:02:36.715Z,61.40
2017-12-10T22:17:37.088Z,58.08
2017-12-10T22:32:35.121Z,65.90
2017-12-10T22:47:34.956Z,62.03
2017-12-10T23:02:36.963Z,65.95
2017-12-10T23:17:37.795Z,66.57
2017-12-10T23:32:35.254Z,64.55
2017-12-10T23:47:36.276Z,58.63
